sensor_id;sensor_type;location;lat;lon;timestamp;P1;durP1;ratioP1;P2;durP2;ratioP2
8694;SDS011;65580;49.446;6.854;2023-02-01T00:00:39;27.75;;;10.20;;
8694;SDS011;65580;49.446;6.854;2023-02-01T00:04:42;28.80;;;10.02;;
8694;SDS011;65580;49.446;6.854;2023-02-01T00:08:46;26.45;;;9.63;;
8694;SDS011;65580;49.446;6.854;2023-02-01T00:12:49;24.23;;;9.70;;
8694;SDS011;65580;49.446;6.854;2023-02-01T00:16:55;39.08;;;11.35;;
8694;SDS011;65580;49.446;6.854;2023-02-01T00:20:58;28.60;;;8.48;;
8694;SDS011;65580;49.446;6.854;2023-02-01T00:25:02;27.90;;;9.93;;
8694;SDS011;65580;49.446;6.854;2023-02-01T00:29:06;25.55;;;8.88;;
8694;SDS011;65580;49.446;6.854;2023-02-01T00:33:14;23.70;;;9.10;;
8694;SDS011;65580;49.446;6.854;2023-02-01T00:37:18;15.02;;;5.70;;
8694;SDS011;65580;49.446;6.854;2023-02-01T00:41:21;32.00;;;9.35;;
8694;SDS011;65580;49.446;6.854;2023-02-01T00:45:25;22.95;;;9.30;;
8694;SDS011;65580;49.446;6.854;2023-02-01T00:49:30;23.70;;;9.02;;
8694;SDS011;65580;49.446;6.854;2023-02-01T00:53:34;27.52;;;10.27;;
8694;SDS011;65580;49.446;6.854;2023-02-01T00:57:37;26.05;;;8.88;;
8694;SDS011;65580;49.446;6.854;2023-02-01T01:01:41;24.52;;;9.27;;
8694;SDS011;65580;49.446;6.854;2023-02-01T01:05:45;27.52;;;9.68;;
8694;SDS011;65580;49.446;6.854;2023-02-01T01:09:49;22.60;;;9.05;;
8694;SDS011;65580;49.446;6.854;2023-02-01T01:13:54;34.25;;;10.10;;
8694;SDS011;65580;49.446;6.854;2023-02-01T01:17:58;19.27;;;7.22;;
8694;SDS011;65580;49.446;6.854;2023-02-01T01:22:03;40.45;;;10.48;;
8694;SDS011;65580;49.446;6.854;2023-02-01T01:26:07;36.67;;;10.27;;
8694;SDS011;65580;49.446;6.854;2023-02-01T01:30:18;33.92;;;10.60;;
8694;SDS011;65580;49.446;6.854;2023-02-01T01:34:21;36.13;;;10.55;;
8694;SDS011;65580;49.446;6.854;2023-02-01T01:38:26;49.92;;;12.02;;
8694;SDS011;65580;49.446;6.854;2023-02-01T01:42:30;33.97;;;11.93;;
8694;SDS011;65580;49.446;6.854;2023-02-01T01:46:34;32.88;;;10.57;;
8694;SDS011;65580;49.446;6.854;2023-02-01T01:50:40;32.70;;;11.40;;
8694;SDS011;65580;49.446;6.854;2023-02-01T01:54:51;34.20;;;11.50;;
8694;SDS011;65580;49.446;6.854;2023-02-01T01:59:02;34.95;;;12.35;;
8694;SDS011;65580;49.446;6.854;2023-02-01T02:03:07;35.33;;;12.27;;
8694;SDS011;65580;49.446;6.854;2023-02-01T02:07:16;32.25;;;10.88;;
8694;SDS011;65580;49.446;6.854;2023-02-01T02:11:23;33.50;;;12.20;;
8694;SDS011;65580;49.446;6.854;2023-02-01T02:15:27;27.83;;;11.25;;
8694;SDS011;65580;49.446;6.854;2023-02-01T02:24:22;22.65;;;10.25;;
8694;SDS011;65580;49.446;6.854;2023-02-01T02:37:42;32.90;;;11.30;;
8694;SDS011;65580;49.446;6.854;2023-02-01T02:41:49;28.15;;;11.07;;
8694;SDS011;65580;49.446;6.854;2023-02-01T02:46:16;34.13;;;10.27;;
8694;SDS011;65580;49.446;6.854;2023-02-01T02:50:56;24.70;;;10.02;;
8694;SDS011;65580;49.446;6.854;2023-02-01T02:55:20;23.70;;;10.38;;
8694;SDS011;65580;49.446;6.854;2023-02-01T03:03:46;22.20;;;9.82;;
8694;SDS011;65580;49.446;6.854;2023-02-01T03:08:12;27.13;;;10.32;;
8694;SDS011;65580;49.446;6.854;2023-02-01T03:12:16;30.45;;;10.85;;
8694;SDS011;65580;49.446;6.854;2023-02-01T03:16:39;25.60;;;10.55;;
8694;SDS011;65580;49.446;6.854;2023-02-01T03:20:45;29.65;;;10.75;;
8694;SDS011;65580;49.446;6.854;2023-02-01T03:24:53;29.08;;;9.98;;
8694;SDS011;65580;49.446;6.854;2023-02-01T03:28:59;23.60;;;9.95;;
8694;SDS011;65580;49.446;6.854;2023-02-01T03:33:09;20.45;;;8.73;;
8694;SDS011;65580;49.446;6.854;2023-02-01T03:37:24;21.85;;;9.10;;
8694;SDS011;65580;49.446;6.854;2023-02-01T03:41:32;29.80;;;8.93;;
8694;SDS011;65580;49.446;6.854;2023-02-01T03:45:39;22.70;;;10.27;;
8694;SDS011;65580;49.446;6.854;2023-02-01T03:49:46;26.52;;;10.93;;
8694;SDS011;65580;49.446;6.854;2023-02-01T03:53:52;29.10;;;10.80;;
8694;SDS011;65580;49.446;6.854;2023-02-01T04:02:01;33.15;;;11.77;;
8694;SDS011;65580;49.446;6.854;2023-02-01T04:06:05;33.10;;;12.70;;
8694;SDS011;65580;49.446;6.854;2023-02-01T04:10:09;34.53;;;12.23;;
8694;SDS011;65580;49.446;6.854;2023-02-01T04:14:15;40.70;;;11.77;;
8694;SDS011;65580;49.446;6.854;2023-02-01T04:18:18;32.90;;;11.18;;
8694;SDS011;65580;49.446;6.854;2023-02-01T04:22:22;27.88;;;10.75;;
8694;SDS011;65580;49.446;6.854;2023-02-01T04:26:25;25.65;;;8.45;;
8694;SDS011;65580;49.446;6.854;2023-02-01T04:30:30;27.35;;;10.52;;
8694;SDS011;65580;49.446;6.854;2023-02-01T04:34:33;22.00;;;9.55;;
8694;SDS011;65580;49.446;6.854;2023-02-01T04:38:37;27.35;;;9.10;;
8694;SDS011;65580;49.446;6.854;2023-02-01T04:42:40;24.70;;;9.65;;
8694;SDS011;65580;49.446;6.854;2023-02-01T04:46:45;33.85;;;12.23;;
8694;SDS011;65580;49.446;6.854;2023-02-01T04:50:49;28.80;;;11.52;;
8694;SDS011;65580;49.446;6.854;2023-02-01T04:54:53;41.33;;;13.38;;
8694;SDS011;65580;49.446;6.854;2023-02-01T04:58:59;32.85;;;12.20;;
8694;SDS011;65580;49.446;6.854;2023-02-01T05:03:05;36.13;;;13.43;;
8694;SDS011;65580;49.446;6.854;2023-02-01T05:07:08;39.97;;;13.40;;
8694;SDS011;65580;49.446;6.854;2023-02-01T05:11:12;34.20;;;12.48;;
8694;SDS011;65580;49.446;6.854;2023-02-01T05:15:29;28.67;;;10.57;;
8694;SDS011;65580;49.446;6.854;2023-02-01T05:19:34;37.55;;;12.30;;
8694;SDS011;65580;49.446;6.854;2023-02-01T05:23:37;32.67;;;12.68;;
8694;SDS011;65580;49.446;6.854;2023-02-01T05:27:54;37.15;;;12.70;;
8694;SDS011;65580;49.446;6.854;2023-02-01T05:31:58;33.28;;;11.70;;
8694;SDS011;65580;49.446;6.854;2023-02-01T05:36:23;32.78;;;11.13;;
8694;SDS011;65580;49.446;6.854;2023-02-01T05:40:26;26.48;;;10.02;;
8694;SDS011;65580;49.446;6.854;2023-02-01T05:44:30;24.05;;;8.90;;
8694;SDS011;65580;49.446;6.854;2023-02-01T05:48:33;22.60;;;9.45;;
8694;SDS011;65580;49.446;6.854;2023-02-01T05:52:38;23.00;;;8.35;;
8694;SDS011;65580;49.446;6.854;2023-02-01T05:56:47;24.92;;;8.30;;
8694;SDS011;65580;49.446;6.854;2023-02-01T06:00:50;30.90;;;8.77;;
8694;SDS011;65580;49.446;6.854;2023-02-01T06:04:54;26.75;;;9.07;;
8694;SDS011;65580;49.446;6.854;2023-02-01T06:08:58;30.15;;;8.40;;
8694;SDS011;65580;49.446;6.854;2023-02-01T06:13:02;27.92;;;8.60;;
8694;SDS011;65580;49.446;6.854;2023-02-01T06:17:05;25.00;;;8.07;;
8694;SDS011;65580;49.446;6.854;2023-02-01T06:21:10;31.20;;;8.70;;
8694;SDS011;65580;49.446;6.854;2023-02-01T06:25:16;28.35;;;8.02;;
8694;SDS011;65580;49.446;6.854;2023-02-01T06:29:20;21.08;;;8.38;;
8694;SDS011;65580;49.446;6.854;2023-02-01T06:33:24;24.88;;;8.65;;
8694;SDS011;65580;49.446;6.854;2023-02-01T06:37:27;24.30;;;7.90;;
8694;SDS011;65580;49.446;6.854;2023-02-01T06:41:32;33.88;;;8.50;;
8694;SDS011;65580;49.446;6.854;2023-02-01T06:45:36;24.58;;;8.45;;
8694;SDS011;65580;49.446;6.854;2023-02-01T06:49:39;24.85;;;9.27;;
8694;SDS011;65580;49.446;6.854;2023-02-01T06:53:42;28.23;;;8.73;;
8694;SDS011;65580;49.446;6.854;2023-02-01T06:57:46;28.38;;;8.25;;
8694;SDS011;65580;49.446;6.854;2023-02-01T07:01:50;21.17;;;8.38;;
8694;SDS011;65580;49.446;6.854;2023-02-01T07:05:55;30.70;;;8.68;;
8694;SDS011;65580;49.446;6.854;2023-02-01T07:09:59;25.83;;;7.75;;
8694;SDS011;65580;49.446;6.854;2023-02-01T07:14:04;53.88;;;15.15;;
8694;SDS011;65580;49.446;6.854;2023-02-01T07:18:07;25.65;;;8.32;;
8694;SDS011;65580;49.446;6.854;2023-02-01T07:22:09;30.88;;;9.68;;
8694;SDS011;65580;49.446;6.854;2023-02-01T07:26:13;25.02;;;6.93;;
8694;SDS011;65580;49.446;6.854;2023-02-01T07:30:19;20.13;;;6.85;;
8694;SDS011;65580;49.446;6.854;2023-02-01T07:34:22;34.03;;;8.50;;
8694;SDS011;65580;49.446;6.854;2023-02-01T07:38:26;28.50;;;6.97;;
8694;SDS011;65580;49.446;6.854;2023-02-01T07:42:30;29.65;;;7.03;;
8694;SDS011;65580;49.446;6.854;2023-02-01T07:46:35;26.88;;;6.60;;
8694;SDS011;65580;49.446;6.854;2023-02-01T07:50:40;24.17;;;6.03;;
8694;SDS011;65580;49.446;6.854;2023-02-01T07:54:43;24.20;;;6.55;;
8694;SDS011;65580;49.446;6.854;2023-02-01T07:58:47;32.17;;;5.97;;
8694;SDS011;65580;49.446;6.854;2023-02-01T08:02:55;25.45;;;7.22;;
8694;SDS011;65580;49.446;6.854;2023-02-01T08:07:01;25.42;;;5.80;;
8694;SDS011;65580;49.446;6.854;2023-02-01T08:11:05;17.98;;;5.55;;
8694;SDS011;65580;49.446;6.854;2023-02-01T08:15:09;31.77;;;5.20;;
8694;SDS011;65580;49.446;6.854;2023-02-01T08:19:18;17.90;;;5.22;;
8694;SDS011;65580;49.446;6.854;2023-02-01T08:23:24;19.05;;;4.60;;
8694;SDS011;65580;49.446;6.854;2023-02-01T08:27:27;27.13;;;4.43;;
8694;SDS011;65580;49.446;6.854;2023-02-01T08:31:30;21.77;;;5.20;;
8694;SDS011;65580;49.446;6.854;2023-02-01T08:35:36;27.38;;;4.57;;
8694;SDS011;65580;49.446;6.854;2023-02-01T08:39:50;20.38;;;3.90;;
8694;SDS011;65580;49.446;6.854;2023-02-01T08:43:54;21.85;;;4.10;;
8694;SDS011;65580;49.446;6.854;2023-02-01T08:47:58;27.08;;;3.60;;
8694;SDS011;65580;49.446;6.854;2023-02-01T08:52:04;17.45;;;3.45;;
8694;SDS011;65580;49.446;6.854;2023-02-01T08:56:20;24.70;;;4.20;;
8694;SDS011;65580;49.446;6.854;2023-02-01T09:00:23;22.80;;;3.67;;
8694;SDS011;65580;49.446;6.854;2023-02-01T09:04:28;25.55;;;3.65;;
8694;SDS011;65580;49.446;6.854;2023-02-01T09:08:37;20.90;;;4.30;;
8694;SDS011;65580;49.446;6.854;2023-02-01T09:12:41;25.15;;;3.97;;
8694;SDS011;65580;49.446;6.854;2023-02-01T09:16:52;28.73;;;4.28;;
8694;SDS011;65580;49.446;6.854;2023-02-01T09:20:56;17.02;;;2.85;;
8694;SDS011;65580;49.446;6.854;2023-02-01T09:29:18;13.90;;;2.28;;
8694;SDS011;65580;49.446;6.854;2023-02-01T09:33:22;7.50;;;2.38;;
8694;SDS011;65580;49.446;6.854;2023-02-01T09:37:47;22.70;;;2.90;;
8694;SDS011;65580;49.446;6.854;2023-02-01T09:42:40;14.13;;;2.67;;
8694;SDS011;65580;49.446;6.854;2023-02-01T09:46:58;18.73;;;2.95;;
8694;SDS011;65580;49.446;6.854;2023-02-01T09:51:04;23.70;;;3.50;;
8694;SDS011;65580;49.446;6.854;2023-02-01T09:55:11;25.80;;;3.47;;
8694;SDS011;65580;49.446;6.854;2023-02-01T09:59:23;23.30;;;2.75;;
8694;SDS011;65580;49.446;6.854;2023-02-01T10:03:34;19.85;;;3.22;;
8694;SDS011;65580;49.446;6.854;2023-02-01T10:07:46;18.65;;;2.75;;
8694;SDS011;65580;49.446;6.854;2023-02-01T10:12:03;24.92;;;2.53;;
8694;SDS011;65580;49.446;6.854;2023-02-01T10:16:27;15.45;;;2.45;;
8694;SDS011;65580;49.446;6.854;2023-02-01T10:20:51;15.45;;;2.45;;
8694;SDS011;65580;49.446;6.854;2023-02-01T10:25:02;8.02;;;1.30;;
8694;SDS011;65580;49.446;6.854;2023-02-01T10:29:12;16.48;;;2.63;;
8694;SDS011;65580;49.446;6.854;2023-02-01T10:33:24;18.42;;;3.45;;
8694;SDS011;65580;49.446;6.854;2023-02-01T10:37:33;24.02;;;3.50;;
8694;SDS011;65580;49.446;6.854;2023-02-01T10:41:42;18.63;;;3.78;;
8694;SDS011;65580;49.446;6.854;2023-02-01T10:45:49;23.00;;;2.70;;
8694;SDS011;65580;49.446;6.854;2023-02-01T10:50:02;21.60;;;3.08;;
8694;SDS011;65580;49.446;6.854;2023-02-01T10:54:18;22.45;;;3.72;;
8694;SDS011;65580;49.446;6.854;2023-02-01T10:58:25;19.35;;;3.03;;
8694;SDS011;65580;49.446;6.854;2023-02-01T11:02:34;14.82;;;2.78;;
8694;SDS011;65580;49.446;6.854;2023-02-01T11:06:40;18.17;;;2.85;;
8694;SDS011;65580;49.446;6.854;2023-02-01T11:10:44;16.95;;;2.80;;
8694;SDS011;65580;49.446;6.854;2023-02-01T11:14:48;27.33;;;2.83;;
8694;SDS011;65580;49.446;6.854;2023-02-01T11:18:53;6.97;;;1.73;;
8694;SDS011;65580;49.446;6.854;2023-02-01T11:23:02;18.02;;;2.60;;
8694;SDS011;65580;49.446;6.854;2023-02-01T11:27:14;4.43;;;1.33;;
8694;SDS011;65580;49.446;6.854;2023-02-01T11:31:28;23.85;;;3.50;;
8694;SDS011;65580;49.446;6.854;2023-02-01T11:35:36;13.77;;;3.28;;
8694;SDS011;65580;49.446;6.854;2023-02-01T11:39:42;17.67;;;3.22;;
8694;SDS011;65580;49.446;6.854;2023-02-01T11:43:53;8.70;;;2.28;;
8694;SDS011;65580;49.446;6.854;2023-02-01T11:47:58;18.75;;;2.60;;
8694;SDS011;65580;49.446;6.854;2023-02-01T11:52:08;17.48;;;3.75;;
8694;SDS011;65580;49.446;6.854;2023-02-01T11:56:25;14.27;;;2.38;;
8694;SDS011;65580;49.446;6.854;2023-02-01T12:00:36;15.35;;;2.72;;
8694;SDS011;65580;49.446;6.854;2023-02-01T12:05:14;8.55;;;1.27;;
8694;SDS011;65580;49.446;6.854;2023-02-01T12:09:34;17.25;;;2.22;;
8694;SDS011;65580;49.446;6.854;2023-02-01T12:13:51;3.58;;;1.40;;
8694;SDS011;65580;49.446;6.854;2023-02-01T12:18:08;18.80;;;2.95;;
8694;SDS011;65580;49.446;6.854;2023-02-01T12:22:36;15.88;;;2.55;;
8694;SDS011;65580;49.446;6.854;2023-02-01T12:26:54;14.10;;;2.42;;
8694;SDS011;65580;49.446;6.854;2023-02-01T12:31:10;12.00;;;1.63;;
8694;SDS011;65580;49.446;6.854;2023-02-01T12:35:37;16.50;;;2.72;;
8694;SDS011;65580;49.446;6.854;2023-02-01T12:39:45;17.25;;;2.42;;
8694;SDS011;65580;49.446;6.854;2023-02-01T12:43:52;10.52;;;2.25;;
8694;SDS011;65580;49.446;6.854;2023-02-01T12:48:02;13.68;;;2.20;;
8694;SDS011;65580;49.446;6.854;2023-02-01T12:52:15;14.82;;;2.33;;
8694;SDS011;65580;49.446;6.854;2023-02-01T12:56:37;14.02;;;2.42;;
8694;SDS011;65580;49.446;6.854;2023-02-01T13:00:58;13.30;;;2.40;;
8694;SDS011;65580;49.446;6.854;2023-02-01T13:05:07;12.50;;;2.05;;
8694;SDS011;65580;49.446;6.854;2023-02-01T13:09:19;10.70;;;2.03;;
8694;SDS011;65580;49.446;6.854;2023-02-01T13:13:28;11.45;;;2.50;;
8694;SDS011;65580;49.446;6.854;2023-02-01T13:17:33;15.80;;;2.47;;
8694;SDS011;65580;49.446;6.854;2023-02-01T13:21:39;14.18;;;2.75;;
8694;SDS011;65580;49.446;6.854;2023-02-01T13:25:46;10.73;;;2.10;;
8694;SDS011;65580;49.446;6.854;2023-02-01T13:29:55;11.75;;;2.15;;
8694;SDS011;65580;49.446;6.854;2023-02-01T13:34:10;10.35;;;2.22;;
8694;SDS011;65580;49.446;6.854;2023-02-01T13:38:53;9.88;;;2.25;;
8694;SDS011;65580;49.446;6.854;2023-02-01T13:43:10;14.20;;;2.28;;
8694;SDS011;65580;49.446;6.854;2023-02-01T13:47:28;13.38;;;2.05;;
8694;SDS011;65580;49.446;6.854;2023-02-01T13:55:37;20.00;;;3.03;;
8694;SDS011;65580;49.446;6.854;2023-02-01T13:59:51;20.00;;;3.00;;
8694;SDS011;65580;49.446;6.854;2023-02-01T14:03:57;11.30;;;2.55;;
8694;SDS011;65580;49.446;6.854;2023-02-01T14:08:09;5.75;;;1.50;;
8694;SDS011;65580;49.446;6.854;2023-02-01T14:21:46;14.50;;;2.10;;
8694;SDS011;65580;49.446;6.854;2023-02-01T14:26:11;12.60;;;1.83;;
8694;SDS011;65580;49.446;6.854;2023-02-01T14:30:19;16.65;;;2.53;;
8694;SDS011;65580;49.446;6.854;2023-02-01T14:34:27;6.03;;;1.52;;
8694;SDS011;65580;49.446;6.854;2023-02-01T14:38:34;14.55;;;2.05;;
8694;SDS011;65580;49.446;6.854;2023-02-01T14:42:42;11.73;;;1.95;;
8694;SDS011;65580;49.446;6.854;2023-02-01T14:51:11;9.98;;;2.05;;
8694;SDS011;65580;49.446;6.854;2023-02-01T14:55:17;16.40;;;2.67;;
8694;SDS011;65580;49.446;6.854;2023-02-01T14:59:26;17.77;;;2.58;;
8694;SDS011;65580;49.446;6.854;2023-02-01T15:03:45;10.10;;;2.30;;
8694;SDS011;65580;49.446;6.854;2023-02-01T15:07:52;13.35;;;2.20;;
8694;SDS011;65580;49.446;6.854;2023-02-01T15:12:17;12.23;;;1.85;;
8694;SDS011;65580;49.446;6.854;2023-02-01T15:16:25;14.00;;;2.40;;
8694;SDS011;65580;49.446;6.854;2023-02-01T15:20:32;15.43;;;3.70;;
8694;SDS011;65580;49.446;6.854;2023-02-01T15:24:38;19.67;;;3.47;;
8694;SDS011;65580;49.446;6.854;2023-02-01T15:28:41;5.47;;;1.30;;
8694;SDS011;65580;49.446;6.854;2023-02-01T15:36:54;10.18;;;1.55;;
8694;SDS011;65580;49.446;6.854;2023-02-01T15:41:11;15.05;;;2.40;;
8694;SDS011;65580;49.446;6.854;2023-02-01T15:45:16;15.65;;;2.28;;
8694;SDS011;65580;49.446;6.854;2023-02-01T15:49:23;11.02;;;2.20;;
8694;SDS011;65580;49.446;6.854;2023-02-01T15:53:29;12.68;;;2.67;;
8694;SDS011;65580;49.446;6.854;2023-02-01T15:57:34;25.67;;;3.35;;
8694;SDS011;65580;49.446;6.854;2023-02-01T16:01:39;14.45;;;2.50;;
8694;SDS011;65580;49.446;6.854;2023-02-01T16:05:43;17.98;;;2.25;;
8694;SDS011;65580;49.446;6.854;2023-02-01T16:09:51;12.60;;;2.00;;
8694;SDS011;65580;49.446;6.854;2023-02-01T16:14:00;15.10;;;1.75;;
8694;SDS011;65580;49.446;6.854;2023-02-01T16:18:03;13.00;;;2.35;;
8694;SDS011;65580;49.446;6.854;2023-02-01T16:22:08;12.52;;;2.03;;
8694;SDS011;65580;49.446;6.854;2023-02-01T16:26:12;18.73;;;3.13;;
8694;SDS011;65580;49.446;6.854;2023-02-01T16:30:17;14.52;;;2.80;;
8694;SDS011;65580;49.446;6.854;2023-02-01T16:34:24;24.60;;;5.68;;
8694;SDS011;65580;49.446;6.854;2023-02-01T16:38:27;13.93;;;3.47;;
8694;SDS011;65580;49.446;6.854;2023-02-01T16:42:32;14.75;;;2.60;;
8694;SDS011;65580;49.446;6.854;2023-02-01T16:50:38;17.70;;;2.22;;
8694;SDS011;65580;49.446;6.854;2023-02-01T16:54:41;14.18;;;2.38;;
8694;SDS011;65580;49.446;6.854;2023-02-01T16:58:46;17.27;;;3.72;;
8694;SDS011;65580;49.446;6.854;2023-02-01T17:02:50;22.20;;;4.20;;
8694;SDS011;65580;49.446;6.854;2023-02-01T17:06:53;28.95;;;5.75;;
8694;SDS011;65580;49.446;6.854;2023-02-01T17:11:23;17.15;;;3.40;;
8694;SDS011;65580;49.446;6.854;2023-02-01T17:15:29;16.70;;;2.70;;
8694;SDS011;65580;49.446;6.854;2023-02-01T17:19:37;16.15;;;2.80;;
8694;SDS011;65580;49.446;6.854;2023-02-01T17:23:41;13.65;;;2.30;;
8694;SDS011;65580;49.446;6.854;2023-02-01T17:27:44;10.10;;;1.75;;
8694;SDS011;65580;49.446;6.854;2023-02-01T17:31:52;19.00;;;2.58;;
8694;SDS011;65580;49.446;6.854;2023-02-01T17:35:58;18.77;;;3.15;;
8694;SDS011;65580;49.446;6.854;2023-02-01T17:40:03;18.33;;;2.47;;
8694;SDS011;65580;49.446;6.854;2023-02-01T17:44:08;18.65;;;2.60;;
8694;SDS011;65580;49.446;6.854;2023-02-01T17:52:29;15.15;;;3.85;;
8694;SDS011;65580;49.446;6.854;2023-02-01T17:56:34;21.00;;;2.55;;
8694;SDS011;65580;49.446;6.854;2023-02-01T18:00:38;7.53;;;1.48;;
8694;SDS011;65580;49.446;6.854;2023-02-01T18:04:45;19.20;;;3.78;;
8694;SDS011;65580;49.446;6.854;2023-02-01T18:08:50;18.13;;;3.05;;
8694;SDS011;65580;49.446;6.854;2023-02-01T18:12:54;12.95;;;2.65;;
8694;SDS011;65580;49.446;6.854;2023-02-01T18:16:59;14.05;;;2.50;;
8694;SDS011;65580;49.446;6.854;2023-02-01T18:21:04;13.10;;;2.33;;
8694;SDS011;65580;49.446;6.854;2023-02-01T18:25:13;21.95;;;3.92;;
8694;SDS011;65580;49.446;6.854;2023-02-01T18:29:18;18.23;;;3.40;;
8694;SDS011;65580;49.446;6.854;2023-02-01T18:33:24;18.38;;;2.75;;
8694;SDS011;65580;49.446;6.854;2023-02-01T18:37:29;8.15;;;1.80;;
8694;SDS011;65580;49.446;6.854;2023-02-01T18:41:33;19.30;;;2.83;;
8694;SDS011;65580;49.446;6.854;2023-02-01T18:45:41;15.63;;;2.78;;
8694;SDS011;65580;49.446;6.854;2023-02-01T18:49:46;22.10;;;3.03;;
8694;SDS011;65580;49.446;6.854;2023-02-01T18:53:57;10.02;;;2.45;;
8694;SDS011;65580;49.446;6.854;2023-02-01T18:58:02;10.23;;;2.10;;
8694;SDS011;65580;49.446;6.854;2023-02-01T19:02:08;11.90;;;1.85;;
8694;SDS011;65580;49.446;6.854;2023-02-01T19:06:12;13.02;;;2.33;;
8694;SDS011;65580;49.446;6.854;2023-02-01T19:10:17;9.07;;;1.55;;
8694;SDS011;65580;49.446;6.854;2023-02-01T19:14:25;13.82;;;2.47;;
8694;SDS011;65580;49.446;6.854;2023-02-01T19:18:28;14.38;;;2.15;;
8694;SDS011;65580;49.446;6.854;2023-02-01T19:22:32;14.98;;;2.15;;
8694;SDS011;65580;49.446;6.854;2023-02-01T19:26:43;16.73;;;2.38;;
8694;SDS011;65580;49.446;6.854;2023-02-01T19:30:59;16.05;;;2.55;;
8694;SDS011;65580;49.446;6.854;2023-02-01T19:35:04;15.65;;;2.35;;
8694;SDS011;65580;49.446;6.854;2023-02-01T19:39:21;18.42;;;2.90;;
8694;SDS011;65580;49.446;6.854;2023-02-01T19:43:27;22.98;;;2.97;;
8694;SDS011;65580;49.446;6.854;2023-02-01T19:47:32;20.95;;;3.30;;
8694;SDS011;65580;49.446;6.854;2023-02-01T19:51:46;12.98;;;2.63;;
8694;SDS011;65580;49.446;6.854;2023-02-01T19:55:50;16.48;;;2.60;;
8694;SDS011;65580;49.446;6.854;2023-02-01T20:00:00;17.13;;;2.47;;
8694;SDS011;65580;49.446;6.854;2023-02-01T20:04:06;12.45;;;2.25;;
8694;SDS011;65580;49.446;6.854;2023-02-01T20:08:10;12.77;;;3.50;;
8694;SDS011;65580;49.446;6.854;2023-02-01T20:12:18;19.45;;;3.05;;
8694;SDS011;65580;49.446;6.854;2023-02-01T20:16:24;9.38;;;2.47;;
8694;SDS011;65580;49.446;6.854;2023-02-01T20:20:28;12.32;;;2.42;;
8694;SDS011;65580;49.446;6.854;2023-02-01T20:24:32;26.60;;;2.72;;
8694;SDS011;65580;49.446;6.854;2023-02-01T20:28:44;15.95;;;3.35;;
8694;SDS011;65580;49.446;6.854;2023-02-01T20:32:50;18.33;;;2.22;;
8694;SDS011;65580;49.446;6.854;2023-02-01T20:36:56;15.30;;;2.28;;
8694;SDS011;65580;49.446;6.854;2023-02-01T20:41:02;17.10;;;2.17;;
8694;SDS011;65580;49.446;6.854;2023-02-01T20:45:07;22.48;;;2.72;;
8694;SDS011;65580;49.446;6.854;2023-02-01T20:49:13;13.30;;;2.30;;
8694;SDS011;65580;49.446;6.854;2023-02-01T20:53:16;13.40;;;1.95;;
8694;SDS011;65580;49.446;6.854;2023-02-01T20:57:27;19.85;;;2.72;;
8694;SDS011;65580;49.446;6.854;2023-02-01T21:01:30;14.82;;;2.47;;
8694;SDS011;65580;49.446;6.854;2023-02-01T21:05:36;15.80;;;2.60;;
8694;SDS011;65580;49.446;6.854;2023-02-01T21:09:42;13.30;;;2.05;;
8694;SDS011;65580;49.446;6.854;2023-02-01T21:13:46;21.13;;;3.00;;
8694;SDS011;65580;49.446;6.854;2023-02-01T21:17:52;15.00;;;2.70;;
8694;SDS011;65580;49.446;6.854;2023-02-01T21:26:05;15.00;;;2.60;;
8694;SDS011;65580;49.446;6.854;2023-02-01T21:30:09;23.30;;;3.70;;
8694;SDS011;65580;49.446;6.854;2023-02-01T21:34:16;22.17;;;2.90;;
8694;SDS011;65580;49.446;6.854;2023-02-01T21:38:22;14.88;;;2.80;;
8694;SDS011;65580;49.446;6.854;2023-02-01T21:42:25;16.33;;;2.70;;
8694;SDS011;65580;49.446;6.854;2023-02-01T21:46:31;18.60;;;2.63;;
8694;SDS011;65580;49.446;6.854;2023-02-01T21:50:34;21.10;;;2.80;;
8694;SDS011;65580;49.446;6.854;2023-02-01T21:54:40;16.70;;;2.58;;
8694;SDS011;65580;49.446;6.854;2023-02-01T21:58:48;19.15;;;2.80;;
8694;SDS011;65580;49.446;6.854;2023-02-01T22:02:52;27.13;;;3.88;;
8694;SDS011;65580;49.446;6.854;2023-02-01T22:06:55;21.50;;;2.97;;
8694;SDS011;65580;49.446;6.854;2023-02-01T22:11:03;16.55;;;2.58;;
8694;SDS011;65580;49.446;6.854;2023-02-01T22:15:07;13.52;;;2.80;;
8694;SDS011;65580;49.446;6.854;2023-02-01T22:19:18;16.77;;;3.25;;
8694;SDS011;65580;49.446;6.854;2023-02-01T22:23:22;16.45;;;2.75;;
8694;SDS011;65580;49.446;6.854;2023-02-01T22:32:07;16.20;;;2.55;;
8694;SDS011;65580;49.446;6.854;2023-02-01T22:36:15;18.65;;;3.03;;
8694;SDS011;65580;49.446;6.854;2023-02-01T22:40:18;20.23;;;2.65;;
8694;SDS011;65580;49.446;6.854;2023-02-01T22:44:24;16.35;;;2.90;;
8694;SDS011;65580;49.446;6.854;2023-02-01T22:48:27;18.90;;;3.30;;
8694;SDS011;65580;49.446;6.854;2023-02-01T22:52:40;15.73;;;2.05;;
8694;SDS011;65580;49.446;6.854;2023-02-01T22:56:43;16.55;;;2.85;;
8694;SDS011;65580;49.446;6.854;2023-02-01T23:00:49;19.95;;;3.30;;
8694;SDS011;65580;49.446;6.854;2023-02-01T23:04:52;19.27;;;2.72;;
8694;SDS011;65580;49.446;6.854;2023-02-01T23:08:55;15.00;;;2.63;;
8694;SDS011;65580;49.446;6.854;2023-02-01T23:13:00;14.13;;;2.70;;
8694;SDS011;65580;49.446;6.854;2023-02-01T23:17:05;18.92;;;3.10;;
8694;SDS011;65580;49.446;6.854;2023-02-01T23:21:09;20.05;;;2.70;;
8694;SDS011;65580;49.446;6.854;2023-02-01T23:25:15;16.10;;;2.40;;
8694;SDS011;65580;49.446;6.854;2023-02-01T23:29:19;22.98;;;2.78;;
8694;SDS011;65580;49.446;6.854;2023-02-01T23:33:24;16.98;;;3.47;;
8694;SDS011;65580;49.446;6.854;2023-02-01T23:37:28;14.93;;;2.38;;
8694;SDS011;65580;49.446;6.854;2023-02-01T23:41:32;12.90;;;2.47;;
8694;SDS011;65580;49.446;6.854;2023-02-01T23:45:36;22.80;;;2.92;;
8694;SDS011;65580;49.446;6.854;2023-02-01T23:49:41;18.85;;;3.10;;
8694;SDS011;65580;49.446;6.854;2023-02-01T23:53:45;20.00;;;2.47;;
8694;SDS011;65580;49.446;6.854;2023-02-01T23:57:49;17.60;;;2.70;;
